createdAt,value
2018-09-03T00:02:17.727Z,78.80
2018-09-03T00:04:51.051Z,76.00
2018-09-03T00:07:24.450Z,78.00
2018-09-03T00:09:57.850Z,75.50
2018-09-03T00:12:31.196Z,76.90
2018-09-03T00:15:04.382Z,75.20
2018-09-03T00:17:37.723Z,73.40
2018-09-03T00:20:13.459Z,74.90
2018-09-03T00:22:46.932Z,77.20
2018-09-03T00:25:21.248Z,75.50
2018-09-03T00:27:55.791Z,72.20
2018-09-03T00:30:31.389Z,73.30
2018-09-03T00:33:13.145Z,71.40
2018-09-03T00:35:52.899Z,72.50
2018-09-03T00:38:30.625Z,72.30
2018-09-03T00:41:08.341Z,71.20
2018-09-03T00:43:53.137Z,73.30
2018-09-03T00:46:30.905Z,72.30
2018-09-03T00:49:04.440Z,70.80
2018-09-03T00:51:37.898Z,73.20
2018-09-03T00:54:11.722Z,69.40
2018-09-03T00:56:46.415Z,69.60
2018-09-03T00:59:22.006Z,68.00
2018-09-03T01:01:58.786Z,68.50
2018-09-03T01:04:32.250Z,69.00
2018-09-03T01:07:07.010Z,68.10
2018-09-03T01:09:40.752Z,69.30
2018-09-03T01:12:14.120Z,67.00
2018-09-03T01:14:49.955Z,68.70
2018-09-03T01:17:24.350Z,72.70
2018-09-03T01:19:59.463Z,74.10
2018-09-03T01:22:33.483Z,72.80
2018-09-03T01:25:08.030Z,73.00
2018-09-03T01:27:41.857Z,72.10
2018-09-03T01:30:16.482Z,71.70
2018-09-03T01:32:49.663Z,72.60
2018-09-03T01:35:25.631Z,74.60
2018-09-03T01:37:58.997Z,76.10
2018-09-03T01:40:33.035Z,76.10
2018-09-03T01:44:10.936Z,77.30
2018-09-03T01:46:48.754Z,78.10
2018-09-03T01:49:24.211Z,78.60
2018-09-03T01:51:57.965Z,79.70
2018-09-03T01:54:34.063Z,80.60
2018-09-03T01:57:07.534Z,81.30
2018-09-03T01:59:42.343Z,82.50
2018-09-03T02:02:16.173Z,82.10
2018-09-03T02:04:51.805Z,82.50
2018-09-03T02:07:26.328Z,83.70
2018-09-03T02:10:01.489Z,84.40
2018-09-03T02:12:37.083Z,83.60
2018-09-03T02:15:13.834Z,84.50
2018-09-03T02:17:47.480Z,82.40
2018-09-03T02:20:20.892Z,81.60
2018-09-03T02:22:54.308Z,82.00
2018-09-03T02:25:28.031Z,83.10
2018-09-03T02:28:01.559Z,80.20
2018-09-03T02:30:34.557Z,80.40
2018-09-03T02:33:07.954Z,79.10
2018-09-03T02:35:43.626Z,79.80
2018-09-03T02:38:17.416Z,79.90
2018-09-03T02:40:51.188Z,80.70
2018-09-03T02:43:24.553Z,82.00
2018-09-03T02:45:58.035Z,82.50
2018-09-03T02:48:31.581Z,85.30
2018-09-03T02:51:05.370Z,86.20
2018-09-03T02:53:39.346Z,87.90
2018-09-03T02:56:13.096Z,90.00
2018-09-03T02:58:47.358Z,90.40
2018-09-03T03:01:21.097Z,90.60
2018-09-03T03:03:55.416Z,91.80
2018-09-03T03:06:29.351Z,91.80
2018-09-03T03:09:04.392Z,92.60
2018-09-03T03:11:38.432Z,93.40
2018-09-03T03:14:12.864Z,94.10
2018-09-03T03:16:48.018Z,94.90
2018-09-03T03:19:24.997Z,95.70
2018-09-03T03:21:59.071Z,96.20
2018-09-03T03:24:33.457Z,97.30
2018-09-03T03:27:07.320Z,98.30
2018-09-03T03:29:41.038Z,99.00
2018-09-03T03:32:15.107Z,99.50
2018-09-03T03:34:48.722Z,99.90
2018-09-03T03:37:22.308Z,99.90
2018-09-03T03:39:56.057Z,99.90
2018-09-03T03:42:31.468Z,99.90
2018-09-03T03:45:05.522Z,99.90
2018-09-03T03:47:40.442Z,99.90
2018-09-03T03:50:14.744Z,99.90
2018-09-03T03:53:05.618Z,99.90
2018-09-03T03:55:41.561Z,99.90
2018-09-03T03:58:15.134Z,99.90
2018-09-03T04:00:48.586Z,99.90
2018-09-03T04:03:25.212Z,99.90
2018-09-03T04:06:00.042Z,99.90
2018-09-03T04:08:39.205Z,99.90
2018-09-03T04:11:13.703Z,99.90
2018-09-03T04:13:52.641Z,99.90
2018-09-03T04:16:26.672Z,99.90
2018-09-03T04:19:00.310Z,99.90
2018-09-03T04:21:34.975Z,99.90
2018-09-03T04:24:08.679Z,99.90
2018-09-03T04:26:44.011Z,99.90
2018-09-03T04:29:20.197Z,99.90
2018-09-03T04:31:53.814Z,99.90
2018-09-03T04:34:27.542Z,99.90
2018-09-03T04:37:01.138Z,99.90
2018-09-03T04:39:35.014Z,99.90
2018-09-03T04:42:11.625Z,99.90
2018-09-03T04:47:30.918Z,99.90
2018-09-03T04:50:06.928Z,99.90
2018-09-03T05:02:15.524Z,99.90
2018-09-03T05:07:33.827Z,99.90
2018-09-03T05:13:39.777Z,99.90
2018-09-03T05:16:14.935Z,99.90
2018-09-03T05:18:54.609Z,99.90
2018-09-03T05:21:30.300Z,99.90
2018-09-03T05:24:18.241Z,99.90
2018-09-03T05:26:53.273Z,99.90
2018-09-03T05:29:30.445Z,99.90
2018-09-03T05:32:06.997Z,99.90
2018-09-03T05:34:42.600Z,99.90
2018-09-03T05:37:21.914Z,99.90
2018-09-03T05:40:12.049Z,99.90
2018-09-03T05:48:43.657Z,99.90
2018-09-03T05:51:21.008Z,99.90
2018-09-03T05:53:56.080Z,99.90
2018-09-03T05:59:18.325Z,99.90
2018-09-03T06:04:36.769Z,99.90
2018-09-03T06:13:46.674Z,99.90
2018-09-03T06:16:21.933Z,99.90
2018-09-03T06:19:01.311Z,99.90
2018-09-03T06:21:54.595Z,99.90
2018-09-03T06:27:07.138Z,99.90
2018-09-03T06:29:46.449Z,99.90
2018-09-03T06:46:42.842Z,99.90
2018-09-03T06:51:51.021Z,99.90
2018-09-03T07:06:18.658Z,99.90
2018-09-03T07:38:51.531Z,99.90
2018-09-03T07:44:52.148Z,99.90
2018-09-03T14:35:39.943Z,99.90
2018-09-03T14:38:15.299Z,99.90
2018-09-03T14:40:50.819Z,99.90
2018-09-03T14:43:24.500Z,99.90
2018-09-03T14:45:58.170Z,99.90
2018-09-03T14:48:32.116Z,99.90
2018-09-03T14:51:05.588Z,99.90
2018-09-03T14:53:38.829Z,99.90
2018-09-03T14:56:17.239Z,99.90
2018-09-03T14:58:52.017Z,99.90
2018-09-03T15:01:26.412Z,99.90
2018-09-03T15:04:03.434Z,99.90
2018-09-03T15:06:41.950Z,99.90
2018-09-03T15:09:18.409Z,99.90
2018-09-03T15:11:53.346Z,99.90
2018-09-03T15:14:28.035Z,99.90
2018-09-03T15:17:02.652Z,99.90
2018-09-03T15:19:36.098Z,99.90
2018-09-03T15:22:11.103Z,99.90
2018-09-03T15:24:47.196Z,99.90
2018-09-03T15:27:23.307Z,99.90
2018-09-03T15:30:00.485Z,99.90
2018-09-03T15:32:36.382Z,99.90
2018-09-03T15:35:10.106Z,99.90
2018-09-03T15:37:44.827Z,99.90
2018-09-03T15:40:19.967Z,99.90
2018-09-03T15:42:53.801Z,99.90
2018-09-03T15:45:31.277Z,99.90
2018-09-03T15:48:06.064Z,99.90
2018-09-03T15:50:40.092Z,99.90
2018-09-03T15:53:14.821Z,99.90
2018-09-03T15:55:59.689Z,99.90
2018-09-03T15:58:35.163Z,99.90
2018-09-03T16:01:09.830Z,99.90
2018-09-03T16:03:44.512Z,99.90
2018-09-03T16:06:20.226Z,99.90
2018-09-03T16:08:58.057Z,99.90
2018-09-03T16:11:31.878Z,99.90
2018-09-03T16:14:07.625Z,99.90
2018-09-03T16:16:46.452Z,99.90
2018-09-03T16:19:20.379Z,99.90
2018-09-03T16:21:56.567Z,99.90
2018-09-03T16:24:34.296Z,99.90
2018-09-03T16:27:09.151Z,99.90
2018-09-03T16:29:43.687Z,99.90
2018-09-03T16:32:23.233Z,99.90
2018-09-03T16:34:59.490Z,99.90
2018-09-03T16:37:35.671Z,99.90
2018-09-03T16:40:11.449Z,99.90
2018-09-03T16:42:45.460Z,99.90
2018-09-03T16:45:20.296Z,99.90
2018-09-03T16:47:53.829Z,99.90
2018-09-03T16:50:28.008Z,99.90
2018-09-03T16:53:08.484Z,99.90
2018-09-03T16:55:42.167Z,99.90
2018-09-03T16:58:16.605Z,99.90
2018-09-03T17:00:50.477Z,99.90
2018-09-03T17:03:30.695Z,99.90
2018-09-03T17:06:06.806Z,99.90
2018-09-03T17:08:42.898Z,99.90
2018-09-03T17:11:20.771Z,99.90
2018-09-03T17:13:56.391Z,99.90
2018-09-03T17:16:30.182Z,99.90
2018-09-03T17:19:04.003Z,99.90
2018-09-03T17:21:38.709Z,99.90
2018-09-03T17:24:13.820Z,99.90
2018-09-03T17:26:50.800Z,99.90
2018-09-03T17:29:27.130Z,99.90
2018-09-03T17:32:02.676Z,99.90
2018-09-03T17:34:42.742Z,99.90
2018-09-03T17:37:17.279Z,99.90
2018-09-03T17:39:50.611Z,99.90
2018-09-03T17:42:25.129Z,99.90
2018-09-03T17:44:58.610Z,99.90
2018-09-03T17:47:32.606Z,99.90
2018-09-03T17:50:05.924Z,99.90
2018-09-03T17:52:40.262Z,99.90
2018-09-03T17:55:13.969Z,99.90
2018-09-03T17:57:47.530Z,99.90
2018-09-03T18:00:21.111Z,99.90
2018-09-03T18:02:55.578Z,99.90
2018-09-03T18:05:29.145Z,99.90
2018-09-03T18:08:02.475Z,99.90
2018-09-03T18:10:36.049Z,99.90
2018-09-03T18:13:09.993Z,99.90
2018-09-03T18:15:44.239Z,99.90
2018-09-03T18:18:18.633Z,99.90
2018-09-03T18:20:53.888Z,99.90
2018-09-03T18:23:28.469Z,99.90
2018-09-03T18:26:02.064Z,99.90
2018-09-03T18:28:35.653Z,99.90
2018-09-03T18:31:09.933Z,99.90
2018-09-03T18:33:44.258Z,99.90
2018-09-03T18:36:17.584Z,99.90
2018-09-03T18:38:51.117Z,99.90
2018-09-03T18:41:31.349Z,99.90
2018-09-03T18:44:10.888Z,99.90
2018-09-03T18:46:45.063Z,99.90
2018-09-03T18:49:18.669Z,99.90
2018-09-03T18:51:53.578Z,99.90
2018-09-03T18:54:27.756Z,99.90
2018-09-03T18:57:02.566Z,99.90
2018-09-03T18:59:40.291Z,99.90
2018-09-03T19:15:13.424Z,99.90
2018-09-03T19:17:53.532Z,99.90
2018-09-03T19:20:36.178Z,99.90
2018-09-03T19:23:16.833Z,99.90
2018-09-03T19:26:01.641Z,99.90
2018-09-03T19:28:36.727Z,99.90
2018-09-03T19:31:12.208Z,99.90
2018-09-03T19:33:48.438Z,99.90
2018-09-03T19:36:26.891Z,99.90
2018-09-03T19:39:02.562Z,99.90
2018-09-03T19:41:40.585Z,99.90
2018-09-03T19:51:05.458Z,99.90
2018-09-03T19:53:42.350Z,99.90
2018-09-03T19:56:17.649Z,99.90
2018-09-03T19:58:53.166Z,99.90
2018-09-03T20:01:28.062Z,99.90
2018-09-03T20:04:03.943Z,99.90
2018-09-03T20:06:38.726Z,99.90
2018-09-03T20:09:13.284Z,99.90
2018-09-03T20:11:50.882Z,99.90
2018-09-03T20:14:27.707Z,99.90
2018-09-03T20:17:02.885Z,99.90
2018-09-03T20:19:38.332Z,99.90
2018-09-03T20:22:19.516Z,99.90
2018-09-03T20:24:55.272Z,99.90
2018-09-03T20:27:28.704Z,99.90
2018-09-03T20:30:02.448Z,99.90
2018-09-03T20:32:36.249Z,99.90
2018-09-03T20:35:09.913Z,99.90
2018-09-03T20:37:43.618Z,99.90
2018-09-03T20:40:18.219Z,99.90
2018-09-03T20:42:53.769Z,99.70
2018-09-03T20:45:29.112Z,99.90
2018-09-03T20:48:04.133Z,99.90
2018-09-03T20:50:41.941Z,99.90
2018-09-03T20:53:20.590Z,99.90
2018-09-03T20:55:54.241Z,99.90
2018-09-03T20:58:29.522Z,99.90
2018-09-03T21:01:09.736Z,99.90
2018-09-03T21:03:48.297Z,99.90
2018-09-03T21:06:22.595Z,99.90
2018-09-03T21:08:56.780Z,99.90
2018-09-03T21:11:35.134Z,99.90
2018-09-03T21:14:09.565Z,99.90
2018-09-03T21:16:45.787Z,99.90
2018-09-03T21:19:22.204Z,99.70
2018-09-03T21:22:05.927Z,99.90
2018-09-03T21:24:42.720Z,99.40
2018-09-03T21:27:21.977Z,99.50
2018-09-03T21:30:06.323Z,98.80
2018-09-03T21:32:49.161Z,99.20
2018-09-03T21:35:26.060Z,99.30
2018-09-03T21:38:02.404Z,98.90
2018-09-03T21:40:37.441Z,98.50
2018-09-03T21:43:13.061Z,98.20
2018-09-03T21:45:49.564Z,98.30
2018-09-03T21:48:26.086Z,97.90
2018-09-03T21:51:04.334Z,98.00
2018-09-03T21:53:39.288Z,98.50
2018-09-03T21:56:12.701Z,98.30
2018-09-03T21:58:46.676Z,97.20
2018-09-03T22:01:23.368Z,97.40
2018-09-03T22:04:00.673Z,96.40
2018-09-03T22:06:34.329Z,96.80
2018-09-03T22:09:11.265Z,95.90
2018-09-03T22:11:49.254Z,96.50
2018-09-03T22:14:28.700Z,95.80
2018-09-03T22:17:10.935Z,95.60
2018-09-03T22:19:45.871Z,95.70
2018-09-03T22:22:21.354Z,96.00
2018-09-03T22:24:55.082Z,94.90
2018-09-03T22:27:31.505Z,94.70
2018-09-03T22:30:05.929Z,93.70
2018-09-03T22:32:40.881Z,93.50
2018-09-03T22:35:18.529Z,92.40
2018-09-03T22:37:54.689Z,93.30
2018-09-03T22:40:34.495Z,91.80
2018-09-03T22:43:08.641Z,91.40
2018-09-03T22:45:44.550Z,92.40
2018-09-03T22:48:25.047Z,91.80
2018-09-03T22:51:00.604Z,91.50
2018-09-03T22:53:36.812Z,91.30
2018-09-03T22:56:10.257Z,91.10
2018-09-03T23:05:35.733Z,90.30
2018-09-03T23:08:13.718Z,89.10
2018-09-03T23:10:48.785Z,89.80
2018-09-03T23:13:29.152Z,87.30
2018-09-03T23:16:02.723Z,87.80
2018-09-03T23:18:36.771Z,88.10
2018-09-03T23:21:18.537Z,88.20
2018-09-03T23:23:58.749Z,85.90
2018-09-03T23:26:32.722Z,87.00
2018-09-03T23:29:08.477Z,85.90
2018-09-03T23:31:42.870Z,88.20
2018-09-03T23:34:18.010Z,86.10
2018-09-03T23:36:53.989Z,85.50
2018-09-03T23:39:27.855Z,87.60
2018-09-03T23:42:01.972Z,86.10
2018-09-03T23:44:35.295Z,86.80
2018-09-03T23:47:09.893Z,86.10
2018-09-03T23:49:45.340Z,85.30
2018-09-03T23:55:49.545Z,86.20
2018-09-03T23:58:23.125Z,85.90
